createdAt,value
2022-11-01T00:02:09.362Z,99308.59
2022-11-01T00:04:36.423Z,99305.75
2022-11-01T00:07:03.459Z,99305.56
2022-11-01T00:09:33.107Z,99303.13
2022-11-01T00:12:00.197Z,99299.63
2022-11-01T00:14:27.014Z,99298.16
2022-11-01T00:16:53.820Z,99298.81
2022-11-01T00:19:20.725Z,99300.44
2022-11-01T00:21:47.519Z,99307.03
2022-11-01T00:24:14.218Z,99302.50
2022-11-01T00:26:40.925Z,99305.81
2022-11-01T00:29:07.865Z,99294.44
2022-11-01T00:31:37.044Z,99287.63
2022-11-01T00:34:06.162Z,99282.66
2022-11-01T00:36:33.928Z,99284.47
2022-11-01T00:39:00.617Z,99278.13
2022-11-01T00:41:27.335Z,99257.50
2022-11-01T00:43:54.103Z,99246.78
2022-11-01T00:46:20.767Z,99242.63
2022-11-01T00:48:47.480Z,99233.94
2022-11-01T00:51:14.149Z,99237.44
2022-11-01T00:53:40.959Z,99222.97
2022-11-01T00:56:08.027Z,99217.78
2022-11-01T00:58:35.525Z,99204.22
2022-11-01T01:01:02.444Z,99202.72
2022-11-01T01:03:29.412Z,99196.41
2022-11-01T01:05:56.187Z,99191.00
2022-11-01T01:08:23.939Z,99188.13
2022-11-01T01:10:50.950Z,99179.06
2022-11-01T01:13:17.863Z,99176.38
2022-11-01T01:15:44.784Z,99163.78
2022-11-01T01:18:11.874Z,99158.25
2022-11-01T01:20:38.637Z,99156.63
2022-11-01T01:23:05.644Z,99153.53
2022-11-01T01:25:32.412Z,99139.09
2022-11-01T01:27:59.199Z,99135.41
2022-11-01T01:30:26.259Z,99127.19
2022-11-01T01:32:52.961Z,99124.94
2022-11-01T01:35:19.675Z,99118.56
2022-11-01T01:37:46.326Z,99111.16
2022-11-01T01:40:13.176Z,99111.16
2022-11-01T01:42:41.947Z,99099.41
2022-11-01T01:45:16.814Z,99085.63
2022-11-01T01:47:46.765Z,99081.28
2022-11-01T01:50:40.516Z,99070.78
2022-11-01T01:53:13.702Z,99060.06
2022-11-01T01:56:14.160Z,99040.88
2022-11-01T01:59:08.623Z,99028.72
2022-11-01T02:01:40.125Z,99021.03
2022-11-01T02:04:31.045Z,99003.13
2022-11-01T02:06:59.856Z,99000.22
2022-11-01T02:09:29.430Z,98982.88
2022-11-01T02:11:58.447Z,98974.00
2022-11-01T02:14:26.219Z,98963.06
2022-11-01T02:16:55.464Z,98971.75
2022-11-01T02:19:59.553Z,98967.56
2022-11-01T02:22:53.287Z,98971.78
2022-11-01T02:25:37.183Z,98958.53
2022-11-01T02:28:41.107Z,98944.50
2022-11-01T02:31:26.652Z,98932.50
2022-11-01T02:34:08.990Z,98931.50
2022-11-01T02:36:44.746Z,98913.56
2022-11-01T02:39:29.829Z,98898.75
2022-11-01T02:42:14.587Z,98891.72
2022-11-01T02:44:49.450Z,98881.03
2022-11-01T02:47:16.750Z,98876.06
2022-11-01T02:49:47.451Z,98873.16
2022-11-01T02:52:18.513Z,98864.72
2022-11-01T02:54:50.218Z,98857.47
2022-11-01T02:57:16.826Z,98853.81
2022-11-01T02:59:45.876Z,98840.75
2022-11-01T03:02:22.429Z,98831.09
2022-11-01T03:04:49.612Z,98832.34
2022-11-01T03:07:17.304Z,98821.22
2022-11-01T03:09:44.742Z,98830.22
2022-11-01T03:15:02.870Z,98815.00
2022-11-01T03:17:37.936Z,98830.88
2022-11-01T03:20:10.426Z,98824.47
2022-11-01T03:22:52.534Z,98805.31
2022-11-01T03:25:37.427Z,98797.88
2022-11-01T03:28:26.039Z,98786.09
2022-11-01T03:30:59.997Z,98793.94
2022-11-01T03:33:28.447Z,98785.94
2022-11-01T03:36:01.753Z,98773.78
2022-11-01T03:38:33.163Z,98772.97
2022-11-01T03:41:04.568Z,98755.66
2022-11-01T03:43:34.523Z,98721.63
2022-11-01T03:46:01.395Z,98703.47
2022-11-01T03:48:28.053Z,98710.69
2022-11-01T03:50:58.021Z,98709.47
2022-11-01T03:53:25.588Z,98703.47
2022-11-01T03:55:52.647Z,98684.34
2022-11-01T03:58:19.402Z,98659.38
2022-11-01T04:00:47.130Z,98657.47
2022-11-01T04:03:14.196Z,98641.66
2022-11-01T04:05:41.973Z,98631.53
2022-11-01T04:08:11.308Z,98620.59
2022-11-01T04:10:38.431Z,98606.38
2022-11-01T04:13:05.460Z,98596.50
2022-11-01T04:15:51.164Z,98593.19
2022-11-01T04:21:10.491Z,98587.19
2022-11-01T04:23:37.683Z,98571.34
2022-11-01T04:26:05.839Z,98563.09
2022-11-01T04:28:32.505Z,98550.75
2022-11-01T04:30:59.278Z,98542.09
2022-11-01T04:33:25.956Z,98541.91
2022-11-01T04:35:52.585Z,98538.41
2022-11-01T04:38:19.342Z,98530.38
2022-11-01T04:40:45.989Z,98511.81
2022-11-01T04:43:13.343Z,98503.78
2022-11-01T04:45:51.652Z,98484.41
2022-11-01T04:48:18.323Z,98482.75
2022-11-01T04:50:45.966Z,98473.25
2022-11-01T04:53:13.223Z,98478.63
2022-11-01T04:55:40.245Z,98468.75
2022-11-01T04:58:07.279Z,98461.72
2022-11-01T05:00:34.555Z,98454.72
2022-11-01T05:03:03.356Z,98438.84
2022-11-01T05:05:31.235Z,98426.25
2022-11-01T05:08:07.375Z,98432.47
2022-11-01T05:10:35.794Z,98424.19
2022-11-01T05:13:03.025Z,98419.47
2022-11-01T05:15:30.381Z,98402.34
2022-11-01T05:17:57.826Z,98400.31
2022-11-01T05:23:06.301Z,98371.22
2022-11-01T05:25:37.122Z,98367.28
2022-11-01T05:28:08.400Z,98361.94
2022-11-01T05:30:36.729Z,98340.72
2022-11-01T05:33:04.872Z,98325.03
2022-11-01T05:35:32.880Z,98313.94
2022-11-01T05:37:59.743Z,98305.91
2022-11-01T05:40:26.799Z,98298.50
2022-11-01T05:42:53.561Z,98288.56
2022-11-01T05:45:20.528Z,98273.50
2022-11-01T05:47:47.136Z,98284.41
2022-11-01T05:50:16.237Z,98266.88
2022-11-01T05:52:43.755Z,98257.38
2022-11-01T05:55:11.666Z,98261.09
2022-11-01T05:57:38.451Z,98248.06
2022-11-01T06:00:06.457Z,98240.06
2022-11-01T06:02:38.976Z,98229.97
2022-11-01T06:05:06.137Z,98232.41
2022-11-01T06:07:35.480Z,98225.84
2022-11-01T06:10:02.227Z,98223.75
2022-11-01T06:12:28.857Z,98220.03
2022-11-01T06:14:55.588Z,98209.75
2022-11-01T06:17:22.238Z,98205.00
2022-11-01T06:19:51.953Z,98203.94
2022-11-01T06:22:18.748Z,98200.47
2022-11-01T06:24:45.462Z,98188.34
2022-11-01T06:27:12.865Z,98191.00
2022-11-01T06:29:39.732Z,98181.28
2022-11-01T06:32:06.567Z,98175.75
2022-11-01T06:34:33.280Z,98165.47
2022-11-01T06:37:00.362Z,98161.44
2022-11-01T06:39:27.428Z,98159.16
2022-11-01T06:41:54.500Z,98160.38
2022-11-01T06:44:22.606Z,98162.44
2022-11-01T06:46:49.352Z,98150.75
2022-11-01T06:49:18.964Z,98143.28
2022-11-01T06:51:47.572Z,98135.03
2022-11-01T06:54:14.739Z,98124.03
2022-11-01T06:56:41.400Z,98145.88
2022-11-01T06:59:08.675Z,98137.03
2022-11-01T07:01:35.626Z,98131.72
2022-11-01T07:04:02.538Z,98111.06
2022-11-01T07:06:30.946Z,98115.66
2022-11-01T07:08:59.457Z,98112.59
2022-11-01T07:11:31.155Z,98114.81
2022-11-01T07:13:59.374Z,98112.38
2022-11-01T07:16:26.657Z,98101.91
2022-11-01T07:18:53.453Z,98097.56
2022-11-01T07:21:20.500Z,98100.88
2022-11-01T07:23:47.356Z,98096.34
2022-11-01T07:26:14.111Z,98100.09
2022-11-01T07:28:41.098Z,98088.97
2022-11-01T07:31:08.157Z,98085.47
2022-11-01T07:33:35.074Z,98086.31
2022-11-01T07:36:02.638Z,98089.19
2022-11-01T07:38:29.498Z,98094.13
2022-11-01T07:40:56.452Z,98089.59
2022-11-01T07:43:23.298Z,98085.91
2022-11-01T07:45:50.599Z,98078.69
2022-11-01T07:48:19.130Z,98087.56
2022-11-01T07:50:46.581Z,98077.47
2022-11-01T07:53:16.610Z,98083.06
2022-11-01T07:55:44.518Z,98082.63
2022-11-01T07:58:13.579Z,98075.41
2022-11-01T08:00:42.920Z,98082.63
2022-11-01T08:03:15.359Z,98082.63
2022-11-01T08:05:43.316Z,98078.94
2022-11-01T08:08:10.308Z,98085.94
2022-11-01T08:10:38.208Z,98072.56
2022-11-01T08:13:07.573Z,98073.56
2022-11-01T08:15:35.005Z,98072.75
2022-11-01T08:18:02.160Z,98070.91
2022-11-01T08:20:30.051Z,98076.66
2022-11-01T08:22:56.816Z,98069.06
2022-11-01T08:25:24.185Z,98071.50
2022-11-01T08:27:51.381Z,98065.78
2022-11-01T08:30:19.605Z,98065.19
2022-11-01T08:32:46.927Z,98063.50
2022-11-01T08:35:13.951Z,98061.44
2022-11-01T08:37:51.312Z,98059.59
2022-11-01T08:40:18.669Z,98056.72
2022-11-01T08:42:45.395Z,98054.25
2022-11-01T08:45:13.060Z,98063.09
2022-11-01T08:47:40.956Z,98062.91
2022-11-01T08:50:11.253Z,98064.56
2022-11-01T08:52:38.718Z,98065.19
2022-11-01T08:55:05.999Z,98064.94
2022-11-01T08:57:32.785Z,98063.94
2022-11-01T08:59:59.633Z,98075.25
2022-11-01T09:02:26.601Z,98067.41
2022-11-01T09:04:53.331Z,98069.06
2022-11-01T09:07:19.989Z,98070.09
2022-11-01T09:09:46.646Z,98071.75
2022-11-01T09:12:14.643Z,98074.03
2022-11-01T09:14:41.931Z,98074.81
2022-11-01T09:17:08.979Z,98076.66
2022-11-01T09:19:35.653Z,98076.88
2022-11-01T09:22:02.395Z,98070.09
2022-11-01T09:24:29.055Z,98078.94
2022-11-01T09:26:55.773Z,98076.69
2022-11-01T09:29:22.604Z,98093.75
2022-11-01T09:31:53.990Z,98086.75
2022-11-01T09:34:21.026Z,98081.00
2022-11-01T09:36:48.931Z,98074.41
2022-11-01T09:39:17.904Z,98080.59
2022-11-01T09:41:59.205Z,98089.63
2022-11-01T09:44:34.291Z,98095.00
2022-11-01T09:47:14.667Z,98089.63
2022-11-01T09:49:44.557Z,98084.72
2022-11-01T09:52:19.680Z,98087.41
2022-11-01T09:54:47.927Z,98082.88
2022-11-01T09:57:35.277Z,98087.59
2022-11-01T10:00:01.889Z,98088.84
2022-11-01T10:02:52.543Z,98096.03
2022-11-01T10:05:21.976Z,98094.59
2022-11-01T10:08:05.602Z,98095.00
2022-11-01T10:10:57.725Z,98105.06
2022-11-01T10:13:58.641Z,98110.19
2022-11-01T10:16:36.471Z,98114.28
2022-11-01T10:19:14.752Z,98113.06
2022-11-01T10:21:47.713Z,98101.53
2022-11-01T10:24:40.916Z,98097.66
2022-11-01T10:27:27.021Z,98091.66
2022-11-01T10:29:59.101Z,98106.06
2022-11-01T10:32:33.606Z,98109.94
2022-11-01T10:35:20.556Z,98107.28
2022-11-01T10:38:11.351Z,98120.84
2022-11-01T10:40:54.545Z,98127.81
2022-11-01T10:43:25.393Z,98138.31
2022-11-01T10:45:55.962Z,98144.50
2022-11-01T10:48:45.150Z,98129.88
2022-11-01T10:51:17.056Z,98134.38
2022-11-01T10:53:48.973Z,98139.69
2022-11-01T10:56:23.897Z,98147.94
2022-11-01T10:59:04.761Z,98143.78
2022-11-01T11:01:42.692Z,98139.22
2022-11-01T11:04:15.714Z,98135.25
2022-11-01T11:06:43.596Z,98147.53
2022-11-01T11:09:20.205Z,98147.81
2022-11-01T11:11:48.831Z,98148.69
2022-11-01T11:14:18.579Z,98150.22
2022-11-01T11:16:57.334Z,98160.47
2022-11-01T11:19:31.311Z,98153.06
2022-11-01T11:21:59.998Z,98168.00
2022-11-01T11:24:35.074Z,98164.72
2022-11-01T11:27:04.312Z,98156.03
2022-11-01T11:29:35.556Z,98151.47
2022-11-01T11:32:04.017Z,98158.88
2022-11-01T11:34:34.187Z,98165.09
2022-11-01T11:37:03.354Z,98159.56
2022-11-01T11:39:38.037Z,98158.22
2022-11-01T11:42:30.444Z,98152.97
2022-11-01T11:45:23.329Z,98148.13
2022-11-01T11:47:50.403Z,98155.44
2022-11-01T11:50:20.802Z,98154.19
2022-11-01T11:52:59.973Z,98154.94
2022-11-01T11:55:42.142Z,98152.53
2022-11-01T11:58:20.225Z,98145.09
2022-11-01T12:00:51.853Z,98145.63
2022-11-01T12:03:19.081Z,98150.78
2022-11-01T12:06:06.535Z,98147.94
2022-11-01T12:08:36.366Z,98151.19
2022-11-01T12:11:04.180Z,98164.03
2022-11-01T12:14:04.871Z,98156.44
2022-11-01T12:16:41.101Z,98163.28
2022-11-01T12:19:29.473Z,98165.09
2022-11-01T12:22:01.063Z,98164.22
2022-11-01T12:24:35.828Z,98160.63
2022-11-01T12:27:06.835Z,98166.44
2022-11-01T12:29:39.018Z,98172.78
2022-11-01T12:32:18.880Z,98178.25
2022-11-01T12:34:48.828Z,98184.38
2022-11-01T12:37:24.626Z,98192.00
2022-11-01T12:40:00.288Z,98195.47
2022-11-01T12:42:30.866Z,98203.13
2022-11-01T12:45:10.764Z,98199.41
2022-11-01T12:47:43.652Z,98203.38
2022-11-01T12:50:26.636Z,98213.47
2022-11-01T12:53:02.643Z,98220.28
2022-11-01T12:55:38.891Z,98228.13
2022-11-01T12:58:13.183Z,98221.50
2022-11-01T13:01:06.447Z,98227.28
2022-11-01T13:04:12.529Z,98226.41
2022-11-01T13:06:57.818Z,98233.00
2022-11-01T13:09:30.373Z,98230.97
2022-11-01T13:12:11.885Z,98238.38
2022-11-01T13:14:47.810Z,98233.44
2022-11-01T13:17:45.135Z,98241.50
2022-11-01T13:20:35.886Z,98255.91
2022-11-01T13:23:08.481Z,98263.16
2022-11-01T13:25:42.956Z,98259.44
2022-11-01T13:28:28.807Z,98265.44
2022-11-01T13:31:07.977Z,98271.41
2022-11-01T13:33:52.434Z,98270.00
2022-11-01T13:36:30.305Z,98280.09
2022-11-01T13:39:38.505Z,98277.22
2022-11-01T13:42:16.956Z,98289.16
2022-11-01T13:44:58.022Z,98283.19
2022-11-01T13:47:34.646Z,98280.53
2022-11-01T13:50:21.746Z,98283.81
2022-11-01T13:52:58.027Z,98285.25
2022-11-01T13:55:49.953Z,98278.66
2022-11-01T13:58:20.033Z,98292.06
2022-11-01T14:00:51.651Z,98299.47
2022-11-01T14:03:27.732Z,98304.81
2022-11-01T14:06:09.486Z,98303.16
2022-11-01T14:08:39.770Z,98315.09
2022-11-01T14:11:07.887Z,98315.28
2022-11-01T14:13:39.121Z,98313.03
2022-11-01T14:16:14.869Z,98318.19
2022-11-01T14:19:03.164Z,98335.06
2022-11-01T14:21:42.317Z,98337.75
2022-11-01T14:24:22.300Z,98342.06
2022-11-01T14:26:56.416Z,98340.22
2022-11-01T14:29:23.161Z,98334.47
2022-11-01T14:31:52.763Z,98333.63
2022-11-01T14:34:31.883Z,98338.75
2022-11-01T14:37:06.069Z,98335.69
2022-11-01T14:39:44.680Z,98334.03
2022-11-01T14:42:15.473Z,98346.38
2022-11-01T14:44:49.623Z,98347.63
2022-11-01T14:47:47.528Z,98355.78
2022-11-01T14:50:23.877Z,98360.75
2022-11-01T14:53:11.191Z,98364.44
2022-11-01T14:55:38.560Z,98367.72
2022-11-01T14:58:19.241Z,98391.16
2022-11-01T15:00:48.918Z,98392.38
2022-11-01T15:03:16.400Z,98397.69
2022-11-01T15:05:49.330Z,98395.22
2022-11-01T15:08:33.661Z,98391.50
2022-11-01T15:11:03.280Z,98391.50
2022-11-01T15:13:33.774Z,98401.75
2022-11-01T15:16:26.832Z,98415.75
2022-11-01T15:18:59.552Z,98402.34
2022-11-01T15:21:30.879Z,98407.06
2022-11-01T15:23:59.193Z,98402.97
2022-11-01T15:26:31.137Z,98401.91
2022-11-01T15:29:04.619Z,98401.69
2022-11-01T15:31:34.407Z,98412.19
2022-11-01T15:34:04.798Z,98408.66
2022-11-01T15:36:39.311Z,98412.56
2022-11-01T15:39:18.546Z,98414.41
2022-11-01T15:41:46.615Z,98426.72
2022-11-01T15:44:27.708Z,98427.59
2022-11-01T15:47:00.035Z,98441.31
2022-11-01T15:49:36.409Z,98443.16
2022-11-01T15:52:07.732Z,98438.25
2022-11-01T15:54:46.718Z,98443.31
2022-11-01T15:57:37.782Z,98452.56
2022-11-01T16:00:06.587Z,98462.81
2022-11-01T16:02:45.178Z,98473.31
2022-11-01T16:05:16.590Z,98484.13
2022-11-01T16:07:44.055Z,98494.81
2022-11-01T16:10:26.802Z,98503.88
2022-11-01T16:12:55.140Z,98510.63
2022-11-01T16:15:31.029Z,98511.00
2022-11-01T16:18:00.255Z,98507.91
2022-11-01T16:20:36.764Z,98518.78
2022-11-01T16:23:06.338Z,98528.81
2022-11-01T16:25:37.899Z,98534.16
2022-11-01T16:28:26.287Z,98543.00
2022-11-01T16:30:55.204Z,98547.06
2022-11-01T16:33:27.864Z,98553.25
2022-11-01T16:35:58.749Z,98554.00
2022-11-01T16:38:28.817Z,98562.22
2022-11-01T16:40:58.261Z,98558.72
2022-11-01T16:43:27.366Z,98570.22
2022-11-01T16:45:54.532Z,98572.69
2022-11-01T16:48:29.974Z,98581.13
2022-11-01T16:50:58.024Z,98584.66
2022-11-01T16:53:26.512Z,98602.06
2022-11-01T16:56:34.584Z,98607.78
2022-11-01T16:58:57.066Z,98620.31
2022-11-01T17:01:31.158Z,98620.88
2022-11-01T17:04:11.876Z,98628.91
2022-11-01T17:06:39.406Z,98628.06
2022-11-01T17:09:14.863Z,98627.03
2022-11-01T17:11:46.373Z,98630.53
2022-11-01T17:14:15.025Z,98630.19
2022-11-01T17:16:43.784Z,98630.81
2022-11-01T17:19:28.346Z,98639.47
2022-11-01T17:21:55.204Z,98637.63
2022-11-01T17:24:24.747Z,98635.94
2022-11-01T17:26:55.973Z,98643.94
2022-11-01T17:29:22.897Z,98644.91
2022-11-01T17:31:49.773Z,98656.16
2022-11-01T17:34:16.531Z,98658.38
2022-11-01T17:36:48.490Z,98660.50
2022-11-01T17:39:15.697Z,98670.53
2022-11-01T17:41:42.340Z,98668.91
2022-11-01T17:44:11.649Z,98664.94
2022-11-01T17:46:39.497Z,98666.34
2022-11-01T17:49:06.329Z,98672.94
2022-11-01T17:51:33.723Z,98673.94
2022-11-01T17:54:00.424Z,98678.47
2022-11-01T17:56:27.052Z,98674.97
2022-11-01T17:58:53.991Z,98679.75
2022-11-01T18:01:21.923Z,98689.31
2022-11-01T18:04:01.342Z,98693.84
2022-11-01T18:06:28.091Z,98699.34
2022-11-01T18:08:54.794Z,98712.25
2022-11-01T18:12:03.049Z,98710.59
2022-11-01T18:14:48.225Z,98719.31
2022-11-01T18:17:27.041Z,98722.19
2022-11-01T18:20:02.784Z,98725.41
2022-11-01T18:22:35.212Z,98727.44
2022-11-01T18:25:29.635Z,98727.63
2022-11-01T18:28:00.565Z,98731.28
2022-11-01T18:30:27.691Z,98736.44
2022-11-01T18:32:57.296Z,98749.59
2022-11-01T18:35:32.345Z,98746.94
2022-11-01T18:38:11.167Z,98748.97
2022-11-01T18:40:56.049Z,98753.09
2022-11-01T18:43:23.664Z,98752.28
2022-11-01T18:46:22.939Z,98754.66
2022-11-01T18:48:37.527Z,98754.00
2022-11-01T18:51:13.922Z,98750.03
2022-11-01T18:53:40.626Z,98746.06
2022-11-01T18:56:27.483Z,98752.31
2022-11-01T18:58:55.615Z,98753.84
2022-11-01T19:01:32.597Z,98767.56
2022-11-01T19:04:20.627Z,98774.44
2022-11-01T19:06:48.421Z,98781.31
2022-11-01T19:09:25.174Z,98783.34
2022-11-01T19:12:01.413Z,98790.31
2022-11-01T19:14:29.003Z,98799.97
2022-11-01T19:16:56.507Z,98797.31
2022-11-01T19:19:23.508Z,98801.63
2022-11-01T19:21:50.125Z,98803.00
2022-11-01T19:24:28.992Z,98806.69
2022-11-01T19:26:57.415Z,98816.03
2022-11-01T19:29:26.257Z,98818.06
2022-11-01T19:31:59.631Z,98823.72
2022-11-01T19:34:29.928Z,98832.09
2022-11-01T19:36:59.889Z,98835.56
2022-11-01T19:39:41.520Z,98833.72
2022-11-01T19:42:26.405Z,98841.56
2022-11-01T19:45:18.211Z,98838.25
2022-11-01T19:47:47.509Z,98847.06
2022-11-01T19:50:21.998Z,98856.38
2022-11-01T19:52:55.085Z,98856.03
2022-11-01T19:55:36.647Z,98859.50
2022-11-01T19:58:31.045Z,98853.53
2022-11-01T20:01:16.629Z,98857.22
2022-11-01T20:03:47.432Z,98856.72
2022-11-01T20:06:21.519Z,98863.72
2022-11-01T20:08:57.224Z,98865.38
2022-11-01T20:11:24.256Z,98862.06
2022-11-01T20:13:51.511Z,98866.38
2022-11-01T20:16:20.309Z,98874.19
2022-11-01T20:18:47.405Z,98878.72
2022-11-01T20:21:16.396Z,98868.03
2022-11-01T20:23:43.004Z,98879.69
2022-11-01T20:26:09.844Z,98878.06
2022-11-01T20:28:36.542Z,98883.38
2022-11-01T20:31:05.498Z,98874.72
2022-11-01T20:33:32.397Z,98876.75
2022-11-01T20:35:59.584Z,98878.75
2022-11-01T20:38:26.257Z,98878.75
2022-11-01T20:40:52.947Z,98883.25
2022-11-01T20:43:19.620Z,98881.59
2022-11-01T20:45:46.263Z,98884.44
2022-11-01T20:48:12.973Z,98889.13
2022-11-01T20:50:39.735Z,98887.44
2022-11-01T20:53:06.744Z,98892.13
2022-11-01T20:55:34.022Z,98892.66
2022-11-01T20:58:01.028Z,98899.97
2022-11-01T21:00:28.203Z,98910.47
2022-11-01T21:02:56.580Z,98908.81
2022-11-01T21:05:28.418Z,98910.94
2022-11-01T21:08:10.056Z,98920.13
2022-11-01T21:10:38.670Z,98923.97
2022-11-01T21:13:27.181Z,98920.66
2022-11-01T21:15:57.150Z,98923.19
2022-11-01T21:18:34.169Z,98927.47
2022-11-01T21:21:45.221Z,98924.66
2022-11-01T21:24:27.381Z,98929.16
2022-11-01T21:27:17.293Z,98927.97
2022-11-01T21:29:50.868Z,98937.47
2022-11-01T21:32:29.146Z,98940.50
2022-11-01T21:34:58.182Z,98940.88
2022-11-01T21:37:29.131Z,98946.19
2022-11-01T21:40:05.234Z,98953.69
2022-11-01T21:42:35.682Z,98960.19
2022-11-01T21:45:26.308Z,98956.00
2022-11-01T21:47:53.610Z,98950.88
2022-11-01T21:50:23.193Z,98970.19
2022-11-01T21:52:49.915Z,98973.50
2022-11-01T21:55:21.698Z,98968.50
2022-11-01T21:57:48.759Z,98962.88
2022-11-01T22:00:17.991Z,98961.19
2022-11-01T22:02:46.146Z,98968.19
2022-11-01T22:05:12.878Z,98975.03
2022-11-01T22:07:39.862Z,98970.06
2022-11-01T22:10:06.952Z,98972.38
2022-11-01T22:12:33.713Z,98964.59
2022-11-01T22:15:00.381Z,98973.91
2022-11-01T22:17:27.118Z,98968.09
2022-11-01T22:19:53.788Z,98970.91
2022-11-01T22:22:20.469Z,98964.91
2022-11-01T22:24:47.348Z,98972.25
2022-11-01T22:27:15.337Z,98970.09
2022-11-01T22:29:41.975Z,98966.44
2022-11-01T22:32:08.627Z,98972.09
2022-11-01T22:34:35.317Z,98975.75
2022-11-01T22:37:15.033Z,98972.44
2022-11-01T22:39:42.181Z,98982.56
2022-11-01T22:42:12.170Z,98982.72
2022-11-01T22:44:39.772Z,98989.06
2022-11-01T22:47:06.641Z,98982.91
2022-11-01T22:49:54.258Z,98990.72
2022-11-01T22:52:26.937Z,98990.91
2022-11-01T22:55:10.982Z,98985.59
2022-11-01T22:57:45.759Z,98992.06
2022-11-01T23:00:24.703Z,98987.75
2022-11-01T23:02:55.094Z,99000.53
2022-11-01T23:05:26.070Z,98997.22
2022-11-01T23:07:54.967Z,98993.91
2022-11-01T23:10:31.534Z,98990.06
2022-11-01T23:13:26.992Z,98990.38
2022-11-01T23:15:57.745Z,98993.53
2022-11-01T23:18:30.728Z,99003.34
2022-11-01T23:21:02.423Z,99017.97
2022-11-01T23:23:29.376Z,99021.47
2022-11-01T23:26:01.566Z,99016.16
2022-11-01T23:28:35.272Z,99016.81
2022-11-01T23:31:09.865Z,99008.84
2022-11-01T23:33:43.750Z,99007.16
2022-11-01T23:36:27.980Z,99008.34
2022-11-01T23:39:04.229Z,99004.00
2022-11-01T23:41:34.769Z,99007.66
2022-11-01T23:44:04.586Z,99019.47
2022-11-01T23:46:31.406Z,99026.59
2022-11-01T23:49:02.063Z,99023.78
2022-11-01T23:51:31.352Z,99026.28
2022-11-01T23:53:58.948Z,99027.28
2022-11-01T23:56:26.020Z,99030.59
2022-11-01T23:59:00.635Z,99036.75
